sensor_id;sensor_type;location;lat;lon;timestamp;P1;durP1;ratioP1;P2;durP2;ratioP2
41683;SDS011;27369;52.030;4.586;2022-08-01T00:01:28;14.73;;;9.05;;
41683;SDS011;27369;52.030;4.586;2022-08-01T00:03:54;13.52;;;8.88;;
41683;SDS011;27369;52.030;4.586;2022-08-01T00:06:19;12.48;;;8.85;;
41683;SDS011;27369;52.030;4.586;2022-08-01T00:08:45;12.83;;;8.73;;
41683;SDS011;27369;52.030;4.586;2022-08-01T00:11:10;13.48;;;9.40;;
41683;SDS011;27369;52.030;4.586;2022-08-01T00:13:35;13.82;;;8.85;;
41683;SDS011;27369;52.030;4.586;2022-08-01T00:16:01;16.30;;;9.80;;
41683;SDS011;27369;52.030;4.586;2022-08-01T00:18:26;15.32;;;9.55;;
41683;SDS011;27369;52.030;4.586;2022-08-01T00:20:52;15.85;;;8.85;;
41683;SDS011;27369;52.030;4.586;2022-08-01T00:23:17;14.90;;;9.07;;
41683;SDS011;27369;52.030;4.586;2022-08-01T00:25:43;19.00;;;9.13;;
41683;SDS011;27369;52.030;4.586;2022-08-01T00:28:08;15.68;;;8.82;;
41683;SDS011;27369;52.030;4.586;2022-08-01T00:33:00;16.90;;;9.33;;
41683;SDS011;27369;52.030;4.586;2022-08-01T00:35:26;13.60;;;8.97;;
41683;SDS011;27369;52.030;4.586;2022-08-01T00:37:51;13.40;;;9.03;;
41683;SDS011;27369;52.030;4.586;2022-08-01T00:40:17;20.33;;;10.27;;
41683;SDS011;27369;52.030;4.586;2022-08-01T00:42:43;18.90;;;9.97;;
41683;SDS011;27369;52.030;4.586;2022-08-01T00:45:08;15.83;;;9.30;;
41683;SDS011;27369;52.030;4.586;2022-08-01T00:47:34;15.90;;;9.37;;
41683;SDS011;27369;52.030;4.586;2022-08-01T00:49:59;16.80;;;9.53;;
41683;SDS011;27369;52.030;4.586;2022-08-01T00:52:25;15.00;;;8.80;;
41683;SDS011;27369;52.030;4.586;2022-08-01T00:54:50;13.18;;;8.57;;
41683;SDS011;27369;52.030;4.586;2022-08-01T00:57:16;15.20;;;8.32;;
41683;SDS011;27369;52.030;4.586;2022-08-01T00:59:41;14.10;;;8.82;;
41683;SDS011;27369;52.030;4.586;2022-08-01T01:02:07;14.70;;;8.45;;
41683;SDS011;27369;52.030;4.586;2022-08-01T01:04:32;11.48;;;6.47;;
41683;SDS011;27369;52.030;4.586;2022-08-01T01:15:24;9.80;;;5.47;;
41683;SDS011;27369;52.030;4.586;2022-08-01T01:18:03;7.93;;;5.57;;
41683;SDS011;27369;52.030;4.586;2022-08-01T01:20:41;7.57;;;5.05;;
41683;SDS011;27369;52.030;4.586;2022-08-01T01:23:19;9.15;;;3.95;;
41683;SDS011;27369;52.030;4.586;2022-08-01T01:31:26;5.43;;;3.47;;
41683;SDS011;27369;52.030;4.586;2022-08-01T01:33:53;7.38;;;3.47;;
41683;SDS011;27369;52.030;4.586;2022-08-01T01:36:21;6.35;;;3.85;;
41683;SDS011;27369;52.030;4.586;2022-08-01T01:38:51;8.93;;;3.90;;
41683;SDS011;27369;52.030;4.586;2022-08-01T01:41:17;6.00;;;4.20;;
41683;SDS011;27369;52.030;4.586;2022-08-01T01:43:45;7.72;;;4.75;;
41683;SDS011;27369;52.030;4.586;2022-08-01T01:46:12;9.15;;;4.40;;
41683;SDS011;27369;52.030;4.586;2022-08-01T01:48:42;7.85;;;4.30;;
41683;SDS011;27369;52.030;4.586;2022-08-01T01:51:10;11.48;;;4.38;;
41683;SDS011;27369;52.030;4.586;2022-08-01T01:53:36;8.00;;;4.30;;
41683;SDS011;27369;52.030;4.586;2022-08-01T01:56:03;10.82;;;4.70;;
41683;SDS011;27369;52.030;4.586;2022-08-01T01:58:29;8.38;;;4.35;;
41683;SDS011;27369;52.030;4.586;2022-08-01T02:00:58;9.90;;;4.15;;
41683;SDS011;27369;52.030;4.586;2022-08-01T02:03:26;8.07;;;3.75;;
41683;SDS011;27369;52.030;4.586;2022-08-01T02:05:53;7.00;;;3.80;;
41683;SDS011;27369;52.030;4.586;2022-08-01T02:08:20;7.10;;;4.22;;
41683;SDS011;27369;52.030;4.586;2022-08-01T02:10:48;6.63;;;4.03;;
41683;SDS011;27369;52.030;4.586;2022-08-01T02:13:36;8.55;;;4.47;;
41683;SDS011;27369;52.030;4.586;2022-08-01T02:16:03;5.25;;;4.25;;
41683;SDS011;27369;52.030;4.586;2022-08-01T02:18:30;9.80;;;4.85;;
41683;SDS011;27369;52.030;4.586;2022-08-01T02:20:57;5.78;;;5.10;;
41683;SDS011;27369;52.030;4.586;2022-08-01T02:23:26;9.30;;;5.60;;
41683;SDS011;27369;52.030;4.586;2022-08-01T02:25:56;11.00;;;6.00;;
41683;SDS011;27369;52.030;4.586;2022-08-01T02:28:29;5.93;;;5.35;;
41683;SDS011;27369;52.030;4.586;2022-08-01T02:31:00;9.90;;;5.22;;
41683;SDS011;27369;52.030;4.586;2022-08-01T02:33:33;6.90;;;4.80;;
41683;SDS011;27369;52.030;4.586;2022-08-01T02:36:01;6.60;;;4.60;;
41683;SDS011;27369;52.030;4.586;2022-08-01T02:38:28;10.05;;;5.07;;
41683;SDS011;27369;52.030;4.586;2022-08-01T02:40:58;9.20;;;4.63;;
41683;SDS011;27369;52.030;4.586;2022-08-01T02:43:28;7.60;;;4.78;;
41683;SDS011;27369;52.030;4.586;2022-08-01T02:45:58;6.53;;;4.40;;
41683;SDS011;27369;52.030;4.586;2022-08-01T02:48:26;8.65;;;4.97;;
41683;SDS011;27369;52.030;4.586;2022-08-01T02:50:54;9.63;;;5.03;;
41683;SDS011;27369;52.030;4.586;2022-08-01T02:53:24;7.57;;;4.35;;
41683;SDS011;27369;52.030;4.586;2022-08-01T02:55:52;8.90;;;4.85;;
41683;SDS011;27369;52.030;4.586;2022-08-01T02:58:19;10.30;;;4.80;;
41683;SDS011;27369;52.030;4.586;2022-08-01T03:00:48;7.35;;;4.70;;
41683;SDS011;27369;52.030;4.586;2022-08-01T03:03:14;7.50;;;5.00;;
41683;SDS011;27369;52.030;4.586;2022-08-01T03:05:41;8.88;;;5.35;;
41683;SDS011;27369;52.030;4.586;2022-08-01T03:08:08;12.20;;;5.60;;
41683;SDS011;27369;52.030;4.586;2022-08-01T03:10:36;11.20;;;5.40;;
41683;SDS011;27369;52.030;4.586;2022-08-01T03:13:03;9.82;;;4.95;;
41683;SDS011;27369;52.030;4.586;2022-08-01T03:15:31;6.47;;;4.70;;
41683;SDS011;27369;52.030;4.586;2022-08-01T03:18:00;5.70;;;4.57;;
41683;SDS011;27369;52.030;4.586;2022-08-01T03:20:27;5.85;;;4.65;;
41683;SDS011;27369;52.030;4.586;2022-08-01T03:22:55;6.78;;;4.25;;
41683;SDS011;27369;52.030;4.586;2022-08-01T03:25:23;6.22;;;4.60;;
41683;SDS011;27369;52.030;4.586;2022-08-01T03:27:51;5.78;;;4.28;;
41683;SDS011;27369;52.030;4.586;2022-08-01T03:30:23;7.55;;;3.97;;
41683;SDS011;27369;52.030;4.586;2022-08-01T03:32:51;4.57;;;3.50;;
41683;SDS011;27369;52.030;4.586;2022-08-01T03:35:17;4.45;;;3.70;;
41683;SDS011;27369;52.030;4.586;2022-08-01T03:37:46;5.47;;;3.63;;
41683;SDS011;27369;52.030;4.586;2022-08-01T03:40:19;6.35;;;4.82;;
41683;SDS011;27369;52.030;4.586;2022-08-01T03:42:49;8.57;;;3.92;;
41683;SDS011;27369;52.030;4.586;2022-08-01T03:45:21;7.07;;;3.90;;
41683;SDS011;27369;52.030;4.586;2022-08-01T03:47:58;8.80;;;4.00;;
41683;SDS011;27369;52.030;4.586;2022-08-01T03:50:25;4.43;;;3.70;;
41683;SDS011;27369;52.030;4.586;2022-08-01T03:52:53;6.15;;;4.05;;
41683;SDS011;27369;52.030;4.586;2022-08-01T03:55:22;7.18;;;4.10;;
41683;SDS011;27369;52.030;4.586;2022-08-01T03:57:49;9.48;;;3.67;;
41683;SDS011;27369;52.030;4.586;2022-08-01T04:00:16;7.10;;;3.88;;
41683;SDS011;27369;52.030;4.586;2022-08-01T04:02:49;6.53;;;3.75;;
41683;SDS011;27369;52.030;4.586;2022-08-01T04:05:16;7.90;;;4.30;;
41683;SDS011;27369;52.030;4.586;2022-08-01T04:07:45;3.90;;;3.35;;
41683;SDS011;27369;52.030;4.586;2022-08-01T04:10:12;6.97;;;3.85;;
41683;SDS011;27369;52.030;4.586;2022-08-01T04:12:38;5.60;;;3.63;;
41683;SDS011;27369;52.030;4.586;2022-08-01T04:15:03;7.40;;;3.72;;
41683;SDS011;27369;52.030;4.586;2022-08-01T04:17:30;4.00;;;3.55;;
41683;SDS011;27369;52.030;4.586;2022-08-01T04:19:55;4.18;;;3.40;;
41683;SDS011;27369;52.030;4.586;2022-08-01T04:22:21;4.72;;;3.10;;
41683;SDS011;27369;52.030;4.586;2022-08-01T04:24:47;4.47;;;3.60;;
41683;SDS011;27369;52.030;4.586;2022-08-01T04:27:22;10.95;;;4.88;;
41683;SDS011;27369;52.030;4.586;2022-08-01T04:29:51;5.30;;;3.63;;
41683;SDS011;27369;52.030;4.586;2022-08-01T04:32:21;6.25;;;4.53;;
41683;SDS011;27369;52.030;4.586;2022-08-01T04:34:48;8.32;;;4.38;;
41683;SDS011;27369;52.030;4.586;2022-08-01T04:37:15;9.60;;;4.13;;
41683;SDS011;27369;52.030;4.586;2022-08-01T04:39:42;4.78;;;3.95;;
41683;SDS011;27369;52.030;4.586;2022-08-01T04:42:10;5.40;;;3.10;;
41683;SDS011;27369;52.030;4.586;2022-08-01T04:44:39;4.28;;;3.40;;
41683;SDS011;27369;52.030;4.586;2022-08-01T04:47:05;7.53;;;3.88;;
41683;SDS011;27369;52.030;4.586;2022-08-01T04:49:33;8.00;;;3.58;;
41683;SDS011;27369;52.030;4.586;2022-08-01T04:51:59;7.07;;;3.65;;
41683;SDS011;27369;52.030;4.586;2022-08-01T04:54:28;6.63;;;3.10;;
41683;SDS011;27369;52.030;4.586;2022-08-01T04:56:59;6.97;;;3.50;;
41683;SDS011;27369;52.030;4.586;2022-08-01T04:59:28;5.80;;;2.90;;
41683;SDS011;27369;52.030;4.586;2022-08-01T05:02:07;5.40;;;3.28;;
41683;SDS011;27369;52.030;4.586;2022-08-01T05:04:35;5.93;;;3.22;;
41683;SDS011;27369;52.030;4.586;2022-08-01T05:07:01;5.13;;;3.05;;
41683;SDS011;27369;52.030;4.586;2022-08-01T05:09:27;7.97;;;3.30;;
41683;SDS011;27369;52.030;4.586;2022-08-01T05:11:52;5.87;;;3.60;;
41683;SDS011;27369;52.030;4.586;2022-08-01T05:14:18;5.35;;;3.63;;
41683;SDS011;27369;52.030;4.586;2022-08-01T05:16:44;6.07;;;3.28;;
41683;SDS011;27369;52.030;4.586;2022-08-01T05:19:10;5.13;;;3.13;;
41683;SDS011;27369;52.030;4.586;2022-08-01T05:21:36;4.72;;;3.20;;
41683;SDS011;27369;52.030;4.586;2022-08-01T05:24:02;3.50;;;2.97;;
41683;SDS011;27369;52.030;4.586;2022-08-01T05:26:28;3.85;;;3.20;;
41683;SDS011;27369;52.030;4.586;2022-08-01T05:28:54;6.43;;;3.13;;
41683;SDS011;27369;52.030;4.586;2022-08-01T05:31:19;5.93;;;2.80;;
41683;SDS011;27369;52.030;4.586;2022-08-01T05:33:44;5.70;;;3.10;;
41683;SDS011;27369;52.030;4.586;2022-08-01T05:36:10;5.72;;;2.60;;
41683;SDS011;27369;52.030;4.586;2022-08-01T05:38:35;3.25;;;2.60;;
41683;SDS011;27369;52.030;4.586;2022-08-01T05:41:01;4.60;;;2.37;;
41683;SDS011;27369;52.030;4.586;2022-08-01T05:43:26;3.50;;;2.83;;
41683;SDS011;27369;52.030;4.586;2022-08-01T05:45:51;3.47;;;3.03;;
41683;SDS011;27369;52.030;4.586;2022-08-01T05:48:17;4.65;;;3.10;;
41683;SDS011;27369;52.030;4.586;2022-08-01T05:50:42;3.30;;;1.98;;
41683;SDS011;27369;52.030;4.586;2022-08-01T05:53:08;2.95;;;1.98;;
41683;SDS011;27369;52.030;4.586;2022-08-01T05:55:34;2.90;;;2.17;;
41683;SDS011;27369;52.030;4.586;2022-08-01T05:58:00;3.20;;;2.73;;
41683;SDS011;27369;52.030;4.586;2022-08-01T06:00:25;4.00;;;2.75;;
41683;SDS011;27369;52.030;4.586;2022-08-01T06:02:51;3.33;;;2.60;;
41683;SDS011;27369;52.030;4.586;2022-08-01T06:05:16;5.70;;;2.72;;
41683;SDS011;27369;52.030;4.586;2022-08-01T06:07:41;3.03;;;2.72;;
41683;SDS011;27369;52.030;4.586;2022-08-01T06:10:07;4.50;;;2.53;;
41683;SDS011;27369;52.030;4.586;2022-08-01T06:12:33;4.83;;;2.60;;
41683;SDS011;27369;52.030;4.586;2022-08-01T06:14:58;5.75;;;3.28;;
41683;SDS011;27369;52.030;4.586;2022-08-01T06:17:24;6.13;;;3.65;;
41683;SDS011;27369;52.030;4.586;2022-08-01T06:19:49;4.22;;;3.60;;
41683;SDS011;27369;52.030;4.586;2022-08-01T06:22:15;4.93;;;3.78;;
41683;SDS011;27369;52.030;4.586;2022-08-01T06:24:40;5.17;;;3.90;;
41683;SDS011;27369;52.030;4.586;2022-08-01T06:27:05;5.22;;;4.70;;
41683;SDS011;27369;52.030;4.586;2022-08-01T06:29:31;7.57;;;5.10;;
41683;SDS011;27369;52.030;4.586;2022-08-01T06:34:22;6.50;;;4.73;;
41683;SDS011;27369;52.030;4.586;2022-08-01T06:36:48;6.88;;;5.53;;
41683;SDS011;27369;52.030;4.586;2022-08-01T06:39:13;6.47;;;5.78;;
41683;SDS011;27369;52.030;4.586;2022-08-01T06:41:39;7.93;;;6.07;;
41683;SDS011;27369;52.030;4.586;2022-08-01T06:44:06;9.10;;;5.78;;
41683;SDS011;27369;52.030;4.586;2022-08-01T06:46:32;9.60;;;6.20;;
41683;SDS011;27369;52.030;4.586;2022-08-01T06:48:57;13.57;;;6.05;;
41683;SDS011;27369;52.030;4.586;2022-08-01T06:51:23;10.32;;;5.90;;
41683;SDS011;27369;52.030;4.586;2022-08-01T06:53:48;10.95;;;6.03;;
41683;SDS011;27369;52.030;4.586;2022-08-01T06:56:13;12.40;;;6.22;;
41683;SDS011;27369;52.030;4.586;2022-08-01T06:58:39;14.43;;;7.55;;
41683;SDS011;27369;52.030;4.586;2022-08-01T07:01:04;13.00;;;7.00;;
41683;SDS011;27369;52.030;4.586;2022-08-01T07:03:33;18.90;;;8.05;;
41683;SDS011;27369;52.030;4.586;2022-08-01T07:05:59;17.02;;;8.25;;
41683;SDS011;27369;52.030;4.586;2022-08-01T07:08:25;16.83;;;6.95;;
41683;SDS011;27369;52.030;4.586;2022-08-01T07:10:50;22.65;;;8.55;;
41683;SDS011;27369;52.030;4.586;2022-08-01T07:13:16;19.52;;;9.05;;
41683;SDS011;27369;52.030;4.586;2022-08-01T07:15:48;21.77;;;8.73;;
41683;SDS011;27369;52.030;4.586;2022-08-01T07:18:13;19.30;;;10.02;;
41683;SDS011;27369;52.030;4.586;2022-08-01T07:20:38;20.48;;;8.23;;
41683;SDS011;27369;52.030;4.586;2022-08-01T07:23:04;16.00;;;7.55;;
41683;SDS011;27369;52.030;4.586;2022-08-01T07:25:29;23.77;;;7.88;;
41683;SDS011;27369;52.030;4.586;2022-08-01T07:27:55;16.83;;;7.25;;
41683;SDS011;27369;52.030;4.586;2022-08-01T07:30:20;17.55;;;7.85;;
41683;SDS011;27369;52.030;4.586;2022-08-01T07:32:46;17.00;;;7.65;;
41683;SDS011;27369;52.030;4.586;2022-08-01T07:35:11;19.30;;;8.38;;
41683;SDS011;27369;52.030;4.586;2022-08-01T07:37:37;19.65;;;7.72;;
41683;SDS011;27369;52.030;4.586;2022-08-01T07:40:02;21.08;;;7.90;;
41683;SDS011;27369;52.030;4.586;2022-08-01T07:42:29;16.77;;;7.75;;
41683;SDS011;27369;52.030;4.586;2022-08-01T07:44:54;17.92;;;7.03;;
41683;SDS011;27369;52.030;4.586;2022-08-01T07:47:26;17.58;;;6.18;;
41683;SDS011;27369;52.030;4.586;2022-08-01T07:49:52;22.38;;;7.20;;
41683;SDS011;27369;52.030;4.586;2022-08-01T07:52:23;15.15;;;5.35;;
41683;SDS011;27369;52.030;4.586;2022-08-01T07:54:49;15.50;;;5.05;;
41683;SDS011;27369;52.030;4.586;2022-08-01T07:57:14;15.05;;;5.20;;
41683;SDS011;27369;52.030;4.586;2022-08-01T07:59:39;17.10;;;5.55;;
41683;SDS011;27369;52.030;4.586;2022-08-01T08:02:05;12.15;;;5.13;;
41683;SDS011;27369;52.030;4.586;2022-08-01T08:04:30;15.07;;;5.30;;
41683;SDS011;27369;52.030;4.586;2022-08-01T08:06:56;15.73;;;5.30;;
41683;SDS011;27369;52.030;4.586;2022-08-01T08:09:21;18.55;;;4.70;;
41683;SDS011;27369;52.030;4.586;2022-08-01T08:11:47;15.00;;;5.43;;
41683;SDS011;27369;52.030;4.586;2022-08-01T08:14:13;15.83;;;4.57;;
41683;SDS011;27369;52.030;4.586;2022-08-01T08:16:38;12.23;;;4.57;;
41683;SDS011;27369;52.030;4.586;2022-08-01T08:19:04;15.00;;;4.32;;
41683;SDS011;27369;52.030;4.586;2022-08-01T08:21:29;11.40;;;3.75;;
41683;SDS011;27369;52.030;4.586;2022-08-01T08:23:55;9.38;;;3.65;;
41683;SDS011;27369;52.030;4.586;2022-08-01T08:26:39;11.43;;;3.75;;
41683;SDS011;27369;52.030;4.586;2022-08-01T08:29:04;16.37;;;4.00;;
41683;SDS011;27369;52.030;4.586;2022-08-01T08:31:30;15.40;;;3.55;;
41683;SDS011;27369;52.030;4.586;2022-08-01T08:33:55;11.83;;;2.97;;
41683;SDS011;27369;52.030;4.586;2022-08-01T08:36:22;10.65;;;3.50;;
41683;SDS011;27369;52.030;4.586;2022-08-01T08:38:47;10.87;;;2.80;;
41683;SDS011;27369;52.030;4.586;2022-08-01T08:43:38;10.48;;;3.13;;
41683;SDS011;27369;52.030;4.586;2022-08-01T08:46:04;10.33;;;2.13;;
41683;SDS011;27369;52.030;4.586;2022-08-01T08:48:31;7.15;;;2.30;;
41683;SDS011;27369;52.030;4.586;2022-08-01T08:50:57;9.90;;;2.67;;
41683;SDS011;27369;52.030;4.586;2022-08-01T08:55:48;7.80;;;2.20;;
41683;SDS011;27369;52.030;4.586;2022-08-01T08:58:15;10.52;;;2.97;;
41683;SDS011;27369;52.030;4.586;2022-08-01T09:00:43;6.18;;;2.20;;
41683;SDS011;27369;52.030;4.586;2022-08-01T09:05:34;5.43;;;1.43;;
41683;SDS011;27369;52.030;4.586;2022-08-01T09:10:25;10.27;;;1.60;;
41683;SDS011;27369;52.030;4.586;2022-08-01T09:13:03;9.10;;;2.13;;
41683;SDS011;27369;52.030;4.586;2022-08-01T09:18:34;10.32;;;1.95;;
41683;SDS011;27369;52.030;4.586;2022-08-01T09:21:11;8.77;;;2.20;;
41683;SDS011;27369;52.030;4.586;2022-08-01T09:23:45;7.80;;;1.63;;
41683;SDS011;27369;52.030;4.586;2022-08-01T09:26:12;6.97;;;1.60;;
41683;SDS011;27369;52.030;4.586;2022-08-01T09:28:40;7.40;;;1.80;;
41683;SDS011;27369;52.030;4.586;2022-08-01T09:36:25;10.45;;;2.17;;
41683;SDS011;27369;52.030;4.586;2022-08-01T09:39:14;8.02;;;2.22;;
41683;SDS011;27369;52.030;4.586;2022-08-01T09:41:40;7.22;;;1.90;;
41683;SDS011;27369;52.030;4.586;2022-08-01T09:46:30;3.87;;;1.20;;
41683;SDS011;27369;52.030;4.586;2022-08-01T09:51:28;11.45;;;2.30;;
41683;SDS011;27369;52.030;4.586;2022-08-01T09:53:55;6.25;;;1.70;;
41683;SDS011;27369;52.030;4.586;2022-08-01T09:58:57;7.97;;;1.70;;
41683;SDS011;27369;52.030;4.586;2022-08-01T10:04:03;8.83;;;2.17;;
41683;SDS011;27369;52.030;4.586;2022-08-01T10:06:37;6.20;;;1.67;;
41683;SDS011;27369;52.030;4.586;2022-08-01T10:09:03;6.28;;;2.08;;
41683;SDS011;27369;52.030;4.586;2022-08-01T10:11:29;13.05;;;2.50;;
41683;SDS011;27369;52.030;4.586;2022-08-01T10:13:57;6.88;;;1.80;;
41683;SDS011;27369;52.030;4.586;2022-08-01T10:16:24;5.63;;;1.83;;
41683;SDS011;27369;52.030;4.586;2022-08-01T10:18:51;8.20;;;1.85;;
41683;SDS011;27369;52.030;4.586;2022-08-01T10:21:18;7.55;;;2.17;;
41683;SDS011;27369;52.030;4.586;2022-08-01T10:23:45;7.43;;;2.30;;
41683;SDS011;27369;52.030;4.586;2022-08-01T10:26:11;17.30;;;4.00;;
41683;SDS011;27369;52.030;4.586;2022-08-01T10:28:39;10.82;;;2.05;;
41683;SDS011;27369;52.030;4.586;2022-08-01T10:31:07;12.65;;;2.53;;
41683;SDS011;27369;52.030;4.586;2022-08-01T10:33:33;6.32;;;1.85;;
41683;SDS011;27369;52.030;4.586;2022-08-01T10:36:01;9.35;;;2.28;;
41683;SDS011;27369;52.030;4.586;2022-08-01T10:38:27;5.97;;;2.22;;
41683;SDS011;27369;52.030;4.586;2022-08-01T10:40:53;7.50;;;2.55;;
41683;SDS011;27369;52.030;4.586;2022-08-01T10:43:22;10.02;;;1.98;;
41683;SDS011;27369;52.030;4.586;2022-08-01T10:50:54;6.57;;;2.10;;
41683;SDS011;27369;52.030;4.586;2022-08-01T10:53:23;5.53;;;1.70;;
41683;SDS011;27369;52.030;4.586;2022-08-01T10:55:57;6.93;;;1.70;;
41683;SDS011;27369;52.030;4.586;2022-08-01T10:58:26;7.28;;;1.80;;
41683;SDS011;27369;52.030;4.586;2022-08-01T11:11:23;3.73;;;1.50;;
41683;SDS011;27369;52.030;4.586;2022-08-01T11:16:33;5.32;;;1.33;;
41683;SDS011;27369;52.030;4.586;2022-08-01T11:19:02;3.80;;;1.30;;
41683;SDS011;27369;52.030;4.586;2022-08-01T11:27:27;4.80;;;1.08;;
41683;SDS011;27369;52.030;4.586;2022-08-01T11:32:50;6.75;;;1.73;;
41683;SDS011;27369;52.030;4.586;2022-08-01T11:35:17;4.60;;;1.23;;
41683;SDS011;27369;52.030;4.586;2022-08-01T11:37:45;8.93;;;1.40;;
41683;SDS011;27369;52.030;4.586;2022-08-01T11:40:15;6.25;;;1.52;;
41683;SDS011;27369;52.030;4.586;2022-08-01T11:42:46;5.70;;;1.52;;
41683;SDS011;27369;52.030;4.586;2022-08-01T11:45:12;7.90;;;1.77;;
41683;SDS011;27369;52.030;4.586;2022-08-01T11:53:02;6.05;;;1.27;;
41683;SDS011;27369;52.030;4.586;2022-08-01T11:55:29;6.82;;;1.40;;
41683;SDS011;27369;52.030;4.586;2022-08-01T11:57:59;6.90;;;1.47;;
41683;SDS011;27369;52.030;4.586;2022-08-01T12:00:26;2.28;;;0.82;;
41683;SDS011;27369;52.030;4.586;2022-08-01T12:03:01;4.07;;;1.40;;
41683;SDS011;27369;52.030;4.586;2022-08-01T12:05:29;8.05;;;1.95;;
41683;SDS011;27369;52.030;4.586;2022-08-01T12:07:56;7.70;;;1.65;;
41683;SDS011;27369;52.030;4.586;2022-08-01T12:10:23;5.15;;;1.30;;
41683;SDS011;27369;52.030;4.586;2022-08-01T12:15:18;4.00;;;1.20;;
41683;SDS011;27369;52.030;4.586;2022-08-01T12:20:19;4.80;;;1.27;;
41683;SDS011;27369;52.030;4.586;2022-08-01T12:22:45;3.97;;;1.57;;
41683;SDS011;27369;52.030;4.586;2022-08-01T12:25:16;8.30;;;2.17;;
41683;SDS011;27369;52.030;4.586;2022-08-01T12:27:43;7.53;;;1.50;;
41683;SDS011;27369;52.030;4.586;2022-08-01T12:30:10;4.60;;;1.60;;
41683;SDS011;27369;52.030;4.586;2022-08-01T12:32:38;6.28;;;1.45;;
41683;SDS011;27369;52.030;4.586;2022-08-01T12:35:08;4.07;;;1.27;;
41683;SDS011;27369;52.030;4.586;2022-08-01T12:37:40;4.97;;;1.75;;
41683;SDS011;27369;52.030;4.586;2022-08-01T12:40:11;4.53;;;1.52;;
41683;SDS011;27369;52.030;4.586;2022-08-01T12:42:48;5.18;;;1.30;;
41683;SDS011;27369;52.030;4.586;2022-08-01T12:45:18;5.85;;;1.33;;
41683;SDS011;27369;52.030;4.586;2022-08-01T12:47:48;4.72;;;1.00;;
41683;SDS011;27369;52.030;4.586;2022-08-01T12:50:19;4.95;;;1.60;;
41683;SDS011;27369;52.030;4.586;2022-08-01T12:52:48;2.42;;;0.95;;
41683;SDS011;27369;52.030;4.586;2022-08-01T12:55:15;3.05;;;1.42;;
41683;SDS011;27369;52.030;4.586;2022-08-01T12:57:49;5.00;;;1.20;;
41683;SDS011;27369;52.030;4.586;2022-08-01T13:00:23;4.28;;;1.27;;
41683;SDS011;27369;52.030;4.586;2022-08-01T13:03:01;4.73;;;1.43;;
41683;SDS011;27369;52.030;4.586;2022-08-01T13:05:43;7.07;;;1.90;;
41683;SDS011;27369;52.030;4.586;2022-08-01T13:08:22;10.10;;;1.40;;
41683;SDS011;27369;52.030;4.586;2022-08-01T13:11:02;5.30;;;1.40;;
41683;SDS011;27369;52.030;4.586;2022-08-01T13:16:06;6.63;;;1.67;;
41683;SDS011;27369;52.030;4.586;2022-08-01T13:18:33;4.72;;;1.35;;
41683;SDS011;27369;52.030;4.586;2022-08-01T13:21:06;3.67;;;1.30;;
41683;SDS011;27369;52.030;4.586;2022-08-01T13:29:10;3.38;;;1.20;;
41683;SDS011;27369;52.030;4.586;2022-08-01T13:31:37;3.97;;;1.00;;
41683;SDS011;27369;52.030;4.586;2022-08-01T13:34:04;5.13;;;1.20;;
41683;SDS011;27369;52.030;4.586;2022-08-01T13:36:30;2.80;;;1.10;;
41683;SDS011;27369;52.030;4.586;2022-08-01T13:38:57;6.03;;;1.73;;
41683;SDS011;27369;52.030;4.586;2022-08-01T13:41:43;5.53;;;1.50;;
41683;SDS011;27369;52.030;4.586;2022-08-01T13:44:09;4.77;;;1.20;;
41683;SDS011;27369;52.030;4.586;2022-08-01T13:46:36;3.83;;;1.30;;
41683;SDS011;27369;52.030;4.586;2022-08-01T13:49:03;5.40;;;1.60;;
41683;SDS011;27369;52.030;4.586;2022-08-01T13:51:30;4.67;;;1.30;;
41683;SDS011;27369;52.030;4.586;2022-08-01T13:53:57;2.90;;;1.40;;
41683;SDS011;27369;52.030;4.586;2022-08-01T13:56:23;4.73;;;1.43;;
41683;SDS011;27369;52.030;4.586;2022-08-01T13:58:49;3.27;;;1.20;;
41683;SDS011;27369;52.030;4.586;2022-08-01T14:01:15;5.00;;;1.50;;
41683;SDS011;27369;52.030;4.586;2022-08-01T14:03:41;5.57;;;1.40;;
41683;SDS011;27369;52.030;4.586;2022-08-01T14:06:06;5.90;;;1.13;;
41683;SDS011;27369;52.030;4.586;2022-08-01T14:08:32;2.73;;;1.10;;
41683;SDS011;27369;52.030;4.586;2022-08-01T14:10:57;3.30;;;0.87;;
41683;SDS011;27369;52.030;4.586;2022-08-01T14:13:27;3.77;;;1.10;;
41683;SDS011;27369;52.030;4.586;2022-08-01T14:15:52;4.23;;;1.07;;
41683;SDS011;27369;52.030;4.586;2022-08-01T14:18:18;7.07;;;1.53;;
41683;SDS011;27369;52.030;4.586;2022-08-01T14:20:44;4.37;;;1.07;;
41683;SDS011;27369;52.030;4.586;2022-08-01T14:23:09;3.50;;;1.07;;
41683;SDS011;27369;52.030;4.586;2022-08-01T14:25:36;6.70;;;1.43;;
41683;SDS011;27369;52.030;4.586;2022-08-01T14:28:02;4.67;;;1.30;;
41683;SDS011;27369;52.030;4.586;2022-08-01T14:30:28;5.40;;;1.27;;
41683;SDS011;27369;52.030;4.586;2022-08-01T14:32:54;4.33;;;1.27;;
41683;SDS011;27369;52.030;4.586;2022-08-01T14:35:19;2.87;;;0.73;;
41683;SDS011;27369;52.030;4.586;2022-08-01T14:37:44;5.07;;;1.30;;
41683;SDS011;27369;52.030;4.586;2022-08-01T14:40:10;3.60;;;1.33;;
41683;SDS011;27369;52.030;4.586;2022-08-01T14:42:36;3.70;;;1.40;;
41683;SDS011;27369;52.030;4.586;2022-08-01T14:45:03;5.13;;;1.00;;
41683;SDS011;27369;52.030;4.586;2022-08-01T14:47:33;3.83;;;0.93;;
41683;SDS011;27369;52.030;4.586;2022-08-01T14:49:59;2.50;;;1.00;;
41683;SDS011;27369;52.030;4.586;2022-08-01T14:52:25;4.10;;;1.07;;
41683;SDS011;27369;52.030;4.586;2022-08-01T14:54:50;4.57;;;1.10;;
41683;SDS011;27369;52.030;4.586;2022-08-01T14:57:15;5.03;;;1.30;;
41683;SDS011;27369;52.030;4.586;2022-08-01T14:59:43;5.90;;;1.43;;
41683;SDS011;27369;52.030;4.586;2022-08-01T15:02:08;5.07;;;1.20;;
41683;SDS011;27369;52.030;4.586;2022-08-01T15:04:35;4.13;;;1.20;;
41683;SDS011;27369;52.030;4.586;2022-08-01T15:07:01;5.83;;;1.10;;
41683;SDS011;27369;52.030;4.586;2022-08-01T15:09:26;4.87;;;1.93;;
41683;SDS011;27369;52.030;4.586;2022-08-01T15:11:51;3.10;;;1.07;;
41683;SDS011;27369;52.030;4.586;2022-08-01T15:14:20;4.03;;;1.03;;
41683;SDS011;27369;52.030;4.586;2022-08-01T15:17:04;3.70;;;1.13;;
41683;SDS011;27369;52.030;4.586;2022-08-01T15:19:30;7.17;;;1.13;;
41683;SDS011;27369;52.030;4.586;2022-08-01T15:21:55;4.03;;;1.27;;
41683;SDS011;27369;52.030;4.586;2022-08-01T15:24:20;3.90;;;1.03;;
41683;SDS011;27369;52.030;4.586;2022-08-01T15:26:46;3.73;;;1.00;;
41683;SDS011;27369;52.030;4.586;2022-08-01T15:29:11;4.57;;;1.27;;
41683;SDS011;27369;52.030;4.586;2022-08-01T15:31:38;2.90;;;0.90;;
41683;SDS011;27369;52.030;4.586;2022-08-01T15:34:06;6.93;;;1.50;;
41683;SDS011;27369;52.030;4.586;2022-08-01T15:36:31;5.80;;;1.50;;
41683;SDS011;27369;52.030;4.586;2022-08-01T15:38:56;3.57;;;1.10;;
41683;SDS011;27369;52.030;4.586;2022-08-01T15:41:22;3.40;;;1.20;;
41683;SDS011;27369;52.030;4.586;2022-08-01T15:43:47;5.33;;;1.63;;
41683;SDS011;27369;52.030;4.586;2022-08-01T15:46:12;2.60;;;1.20;;
41683;SDS011;27369;52.030;4.586;2022-08-01T15:48:38;8.93;;;2.10;;
41683;SDS011;27369;52.030;4.586;2022-08-01T15:51:03;4.30;;;1.30;;
41683;SDS011;27369;52.030;4.586;2022-08-01T15:53:29;3.00;;;1.00;;
41683;SDS011;27369;52.030;4.586;2022-08-01T15:55:54;5.30;;;1.30;;
41683;SDS011;27369;52.030;4.586;2022-08-01T15:58:19;3.53;;;1.10;;
41683;SDS011;27369;52.030;4.586;2022-08-01T16:00:45;5.17;;;1.43;;
41683;SDS011;27369;52.030;4.586;2022-08-01T16:03:10;4.53;;;1.10;;
41683;SDS011;27369;52.030;4.586;2022-08-01T16:05:36;4.80;;;1.60;;
41683;SDS011;27369;52.030;4.586;2022-08-01T16:08:02;3.20;;;0.93;;
41683;SDS011;27369;52.030;4.586;2022-08-01T16:10:28;4.97;;;1.17;;
41683;SDS011;27369;52.030;4.586;2022-08-01T16:12:54;4.53;;;0.90;;
41683;SDS011;27369;52.030;4.586;2022-08-01T16:15:20;4.00;;;1.20;;
41683;SDS011;27369;52.030;4.586;2022-08-01T16:17:45;3.57;;;1.13;;